^^
Historische Daten
 
Tag Summe für April 27, 2017 Einheit:  Metric    English   Beide
« vorheriger Tag
nächster Tag »
Tag Woche Monat Jahr Benutzerdefiniert
  Aktuell: Max: Min: Durchschnitt:
Temperatur: 1.3 °C 1.3 °C -0.8 °C -0.1 °C
Tau Punkt: -0.3 °C -0.2 °C -1.8 °C -1 °C
Luftfeuchte: 89% 95% 89% 93%
Windgeschwindigkeit: 0.0km/h 5.6km/h 0.0km/h 0.1km/h
Wind Böen: 0.0km/h 5.6km/h - -
WindCalm - - West
Luftdruck: 1015.1 hPa 1015.1 hPa 1013.1 hPa -
Niederschlag: 0.0 mm      
Historical Graphs
 
 
Tabellendaten für April 27, 2017
Zeit Temperatur Tau Punkt Luftdruck Wind Windgeschwindigkeit Wind Böen Luftfeuchte Regen Rate (Stunde) Conditions
00:04 -0.2 °C -0.9 °C 1013.8 hPa Calm     95% 0.0 mm RA
00:09 -0.3 °C -1.0 °C 1013.8 hPa Calm     95% 0.0 mm RA
00:14 -0.3 °C -1.1 °C 1013.8 hPa Calm     95% 0.0 mm CLR
00:15 -0.3 °C -1.1 °C 1013.8 hPa Calm     95% 0.0 mm CLR
00:20 -0.3 °C -1.0 °C 1014.1 hPa Calm     95% 0.0 mm CLR
00:25 -0.2 °C -0.9 °C 1014.1 hPa Calm     95% 0.0 mm CLR
00:26 -0.2 °C -0.9 °C 1014.1 hPa Calm     95% 0.0 mm CLR
00:31 -0.1 °C -0.9 °C 1014.4 hPa Calm     94% 0.0 mm CLR
00:36 0.0 °C -0.8 °C 1014.4 hPa Calm     94% 0.0 mm CLR
00:41 0.0 °C -0.8 °C 1014.4 hPa Calm     94% 0.0 mm CLR
00:46 0.0 °C -0.8 °C 1014.4 hPa Calm     94% 0.0 mm CLR
00:51 0.0 °C -0.8 °C 1014.4 hPa Calm     94% 0.0 mm CLR
00:56 -0.1 °C -0.9 °C 1014.1 hPa Calm     94% 0.0 mm CLR
01:01 0.0 °C -0.8 °C 1014.1 hPa Calm     94% 0.0 mm CLR
01:06 0.1 °C -0.8 °C 1014.4 hPa Calm     94% 0.0 mm CLR
01:11 0.1 °C -0.7 °C 1014.4 hPa Calm     94% 0.0 mm CLR
01:16 0.1 °C -0.7 °C 1014.4 hPa Calm     94% 0.0 mm CLR
01:21 0.1 °C -0.9 °C 1014.4 hPa Calm     93% 0.0 mm CLR
01:26 0.1 °C -0.9 °C 1014.4 hPa Calm     93% 0.0 mm CLR
01:31 0.1 °C -0.9 °C 1014.4 hPa Calm     93% 0.0 mm CLR
01:36 0.1 °C -0.9 °C 1014.1 hPa Calm     93% 0.0 mm CLR
01:41 0.1 °C -0.9 °C 1014.1 hPa Calm     93% 0.0 mm CLR
01:46 0.0 °C -1.0 °C 1014.1 hPa Calm     93% 0.0 mm CLR
01:51 0.0 °C -1.0 °C 1014.1 hPa Calm     93% 0.0 mm CLR
01:56 -0.1 °C -1.1 °C 1014.1 hPa Calm     93% 0.0 mm CLR
02:01 -0.1 °C -1.3 °C 1014.1 hPa Calm     92% 0.0 mm CLR
02:06 -0.3 °C -1.3 °C 1013.8 hPa Calm     93% 0.0 mm CLR
02:11 -0.2 °C -1.2 °C 1013.8 hPa Calm     93% 0.0 mm SCT
02:16 -0.3 °C -1.3 °C 1013.8 hPa Calm     93% 0.0 mm SCT
02:21 -0.3 °C -1.3 °C 1013.4 hPa Calm     93% 0.0 mm SCT
02:26 -0.3 °C -1.3 °C 1013.8 hPa Calm     93% 0.0 mm SCT
02:31 -0.4 °C -1.4 °C 1013.8 hPa Calm     93% 0.0 mm SCT
02:36 -0.4 °C -1.4 °C 1013.8 hPa Calm     93% 0.0 mm SCT
02:41 -0.5 °C -1.5 °C 1013.8 hPa Calm     93% 0.0 mm SCT
02:46 -0.5 °C -1.5 °C 1013.8 hPa Calm     93% 0.0 mm SCT
02:51 -0.6 °C -1.4 °C 1013.8 hPa Calm     94% 0.0 mm SCT
02:56 -0.7 °C -1.5 °C 1013.8 hPa Calm     94% 0.0 mm SCT
03:01 -0.7 °C -1.6 °C 1013.8 hPa Calm     94% 0.0 mm SCT
03:06 -0.7 °C -1.6 °C 1013.4 hPa Calm     94% 0.0 mm SCT
03:11 -0.8 °C -1.8 °C 1013.4 hPa Calm     93% 0.0 mm SCT
03:16 -0.8 °C -1.8 °C 1013.4 hPa Calm     93% 0.0 mm SCT
03:21 -0.8 °C -1.6 °C 1013.4 hPa Calm     94% 0.0 mm SCT
03:26 -0.8 °C -1.6 °C 1013.8 hPa Calm     94% 0.0 mm SCT
03:31 -0.8 °C -1.6 °C 1013.8 hPa Calm     94% 0.0 mm SCT
03:36 -0.8 °C -1.6 °C 1013.8 hPa Calm     94% 0.0 mm SCT
03:41 -0.7 °C -1.5 °C 1013.8 hPa Calm     94% 0.0 mm SCT
03:46 -0.6 °C -1.4 °C 1013.4 hPa Calm     94% 0.0 mm SCT
03:51 -0.6 °C -1.4 °C 1013.4 hPa Calm     94% 0.0 mm SCT
03:56 -0.6 °C -1.4 °C 1013.4 hPa Calm     94% 0.0 mm SCT
04:01 -0.5 °C -1.3 °C 1013.4 hPa Calm     94% 0.0 mm SCT
04:06 -0.4 °C -1.3 °C 1013.4 hPa Calm     94% 0.0 mm SCT
04:11 -0.4 °C -1.4 °C 1013.1 hPa Calm     93% 0.0 mm SCT
04:16 -0.4 °C -1.4 °C 1013.1 hPa Calm     93% 0.0 mm SCT
04:21 -0.4 °C -1.4 °C 1013.1 hPa Calm     93% 0.0 mm SCT
04:26 -0.4 °C -1.4 °C 1013.1 hPa Calm     93% 0.0 mm SCT
04:31 -0.5 °C -1.5 °C 1013.1 hPa Calm     93% 0.0 mm SCT
04:36 -0.4 °C -1.4 °C 1013.1 hPa Calm     93% 0.0 mm SCT
04:41 -0.4 °C -1.4 °C 1013.4 hPa Calm     93% 0.0 mm SCT
04:46 -0.3 °C -1.3 °C 1013.4 hPa Calm     93% 0.0 mm SCT
04:51 -0.3 °C -1.3 °C 1013.4 hPa Calm     93% 0.0 mm SCT
04:56 -0.2 °C -1.2 °C 1013.1 hPa WNW 1.9 km/h 1.9 km/h 93% 0.0 mm SCT
05:01 -0.3 °C -1.3 °C 1013.8 hPa Calm     93% 0.0 mm FEW
05:06 -0.3 °C -1.3 °C 1014.1 hPa Calm     93% 0.0 mm FEW
05:11 -0.3 °C -1.3 °C 1014.1 hPa Calm     93% 0.0 mm FEW
05:16 -0.3 °C -1.3 °C 1014.1 hPa Calm     93% 0.0 mm FEW
05:21 -0.2 °C -1.2 °C 1014.1 hPa Calm     93% 0.0 mm FEW
05:26 -0.2 °C -1.2 °C 1014.1 hPa Calm     93% 0.0 mm FEW
05:31 -0.1 °C -1.1 °C 1014.1 hPa Calm     93% 0.0 mm SCT
05:36 -0.1 °C -1.1 °C 1014.4 hPa Calm     93% 0.0 mm SCT
05:41 0.0 °C -1.0 °C 1014.1 hPa Calm     93% 0.0 mm OVC
05:46 0.0 °C -1.0 °C 1014.1 hPa Calm     93% 0.0 mm OVC
05:51 0.0 °C -1.0 °C 1014.1 hPa Calm     93% 0.0 mm OVC
05:56 -0.1 °C -1.1 °C 1014.4 hPa Calm     93% 0.0 mm OVC
06:01 -0.1 °C -1.1 °C 1014.4 hPa Calm     93% 0.0 mm OVC
06:06 -0.2 °C -1.2 °C 1014.8 hPa Calm     93% 0.0 mm OVC
06:11 -0.1 °C -0.9 °C 1014.8 hPa Calm     94% 0.0 mm OVC
06:12 -0.1 °C -0.9 °C 1014.8 hPa Calm     94% 0.0 mm OVC
06:17 -0.1 °C -0.9 °C 1014.8 hPa Calm     94% 0.0 mm OVC
06:22 -0.1 °C -0.9 °C 1014.4 hPa Calm     94% 0.0 mm OVC
06:27 -0.1 °C -0.9 °C 1014.1 hPa Calm     94% 0.0 mm OVC
06:32 -0.2 °C -1.0 °C 1013.8 hPa Calm     94% 0.0 mm OVC
06:37 -0.3 °C -1.2 °C 1013.8 hPa Calm     94% 0.0 mm OVC
06:42 -0.4 °C -1.3 °C 1014.1 hPa Calm     94% 0.0 mm SCT
06:47 -0.4 °C -1.1 °C 1013.8 hPa Calm     95% 0.0 mm SCT
06:52 -0.3 °C -1.1 °C 1014.1 hPa Calm     95% 0.0 mm SCT
06:57 -0.2 °C -0.9 °C 1014.8 hPa West 3.7 km/h 3.7 km/h 95% 0.0 mm SCT
07:02 -0.2 °C -0.9 °C 1015.1 hPa West 5.6 km/h 5.6 km/h 95% 0.0 mm SCT
07:07 -0.2 °C -0.9 °C 1015.1 hPa West 1.9 km/h 1.9 km/h 95% 0.0 mm SCT
07:12 0.0 °C -0.7 °C 1015.1 hPa Calm     95% 0.0 mm BKN
07:17 0.1 °C -0.6 °C 1014.8 hPa Calm     95% 0.0 mm BKN
07:22 0.2 °C -0.6 °C 1014.4 hPa Calm     95% 0.0 mm BKN
07:27 0.3 °C -0.4 °C 1014.4 hPa West 1.9 km/h 1.9 km/h 95% 0.0 mm BKN
07:32 0.4 °C -0.4 °C 1014.8 hPa Calm     94% 0.0 mm BKN
07:37 0.6 °C -0.3 °C 1014.8 hPa Calm     94% 0.0 mm BKN
07:42 0.7 °C -0.3 °C 1014.4 hPa Calm     93% 0.0 mm BKN
07:47 0.7 °C -0.3 °C 1014.8 hPa Calm     93% 0.0 mm BKN
07:52 0.8 °C -0.4 °C 1014.8 hPa Calm     92% 0.0 mm BKN
07:57 0.7 °C -0.4 °C 1015.1 hPa Calm     92% 0.0 mm BKN
08:02 0.7 °C -0.5 °C 1015.1 hPa Calm     92% 0.0 mm OVC
08:07 0.6 °C -0.4 °C 1015.1 hPa Calm     93% 0.0 mm OVC
08:12 0.7 °C -0.3 °C 1015.1 hPa Calm     93% 0.0 mm BKN
08:17 0.6 °C -0.4 °C 1015.1 hPa Calm     93% 0.0 mm BKN
08:22 0.7 °C -0.3 °C 1015.1 hPa Calm     93% 0.0 mm BKN
08:27 0.7 °C -0.3 °C 1015.1 hPa Calm     93% 0.0 mm BKN
08:32 0.8 °C -0.4 °C 1015.1 hPa Calm     92% 0.0 mm BKN
08:37 0.9 °C -0.4 °C 1015.1 hPa Calm     91% 0.0 mm BKN
08:42 1.0 °C -0.4 °C 1014.8 hPa Calm     90% 0.0 mm BKN
08:47 1.1 °C -0.4 °C 1015.1 hPa Calm     90% 0.0 mm BKN
08:52 1.1 °C -0.6 °C 1014.8 hPa Calm     89% 0.0 mm BKN
08:57 1.1 °C -0.6 °C 1014.8 hPa Calm     89% 0.0 mm BKN
09:02 1.2 °C -0.3 °C 1014.8 hPa Calm     90% 0.0 mm BKN
09:07 1.3 °C -0.2 °C 1014.8 hPa Calm     90% 0.0 mm BKN
09:12 1.3 °C -0.3 °C 1015.1 hPa Calm     89% 0.0 mm BKN
Wetterstation-Johanngeorgenstadt
bereitgestellt durch Wetterstation-Johanngeorgenstadt und Weather Underground - 2 mb
Besucherstatistik
Besucher gesamt: 586.624
Besucher heute: 575
Besucher gestern: 1.648
Besucher pro Tag: 783,95
gerade online: 20
max. online: 156
Seitenaufrufe diese Seite: 1.790
counter Statistiken